sensor_id;sensor_type;location;lat;lon;timestamp;P1;durP1;ratioP1;P2;durP2;ratioP2
76320;SDS011;65132;52.088;5.402;2024-02-15T00:01:15;15.00;;;5.18;;
76320;SDS011;65132;52.088;5.402;2024-02-15T00:03:41;13.70;;;4.88;;
76320;SDS011;65132;52.088;5.402;2024-02-15T00:06:08;13.52;;;5.85;;
76320;SDS011;65132;52.088;5.402;2024-02-15T00:08:34;15.02;;;5.40;;
76320;SDS011;65132;52.088;5.402;2024-02-15T00:11:00;14.00;;;6.10;;
76320;SDS011;65132;52.088;5.402;2024-02-15T00:13:27;9.27;;;4.97;;
76320;SDS011;65132;52.088;5.402;2024-02-15T00:15:53;11.82;;;5.35;;
76320;SDS011;65132;52.088;5.402;2024-02-15T00:18:20;11.48;;;4.72;;
76320;SDS011;65132;52.088;5.402;2024-02-15T00:20:46;15.77;;;5.15;;
76320;SDS011;65132;52.088;5.402;2024-02-15T00:23:13;12.38;;;5.05;;
76320;SDS011;65132;52.088;5.402;2024-02-15T00:25:39;12.13;;;5.00;;
76320;SDS011;65132;52.088;5.402;2024-02-15T00:28:06;11.02;;;4.78;;
76320;SDS011;65132;52.088;5.402;2024-02-15T00:30:34;11.73;;;4.68;;
76320;SDS011;65132;52.088;5.402;2024-02-15T00:33:01;12.23;;;4.85;;
76320;SDS011;65132;52.088;5.402;2024-02-15T00:35:28;11.77;;;4.70;;
76320;SDS011;65132;52.088;5.402;2024-02-15T00:37:55;10.95;;;4.43;;
76320;SDS011;65132;52.088;5.402;2024-02-15T00:40:21;11.50;;;4.05;;
76320;SDS011;65132;52.088;5.402;2024-02-15T00:42:47;12.65;;;5.13;;
76320;SDS011;65132;52.088;5.402;2024-02-15T00:45:17;13.07;;;5.05;;
76320;SDS011;65132;52.088;5.402;2024-02-15T00:47:43;15.40;;;4.88;;
76320;SDS011;65132;52.088;5.402;2024-02-15T00:50:10;17.40;;;5.05;;
76320;SDS011;65132;52.088;5.402;2024-02-15T00:52:36;14.60;;;5.25;;
76320;SDS011;65132;52.088;5.402;2024-02-15T00:55:03;13.27;;;4.70;;
76320;SDS011;65132;52.088;5.402;2024-02-15T00:57:29;18.38;;;5.38;;
76320;SDS011;65132;52.088;5.402;2024-02-15T00:59:58;12.20;;;5.22;;
76320;SDS011;65132;52.088;5.402;2024-02-15T01:02:24;16.58;;;5.15;;
76320;SDS011;65132;52.088;5.402;2024-02-15T01:04:51;17.80;;;5.45;;
76320;SDS011;65132;52.088;5.402;2024-02-15T01:07:18;13.05;;;5.30;;
76320;SDS011;65132;52.088;5.402;2024-02-15T01:09:44;12.45;;;5.53;;
76320;SDS011;65132;52.088;5.402;2024-02-15T01:12:12;12.80;;;5.63;;
76320;SDS011;65132;52.088;5.402;2024-02-15T01:14:39;14.68;;;5.82;;
76320;SDS011;65132;52.088;5.402;2024-02-15T01:17:05;13.05;;;5.75;;
76320;SDS011;65132;52.088;5.402;2024-02-15T01:19:31;18.80;;;7.00;;
76320;SDS011;65132;52.088;5.402;2024-02-15T01:22:00;14.35;;;6.15;;
76320;SDS011;65132;52.088;5.402;2024-02-15T01:24:29;19.27;;;7.75;;
76320;SDS011;65132;52.088;5.402;2024-02-15T01:26:56;20.45;;;7.63;;
76320;SDS011;65132;52.088;5.402;2024-02-15T01:29:24;23.35;;;8.77;;
76320;SDS011;65132;52.088;5.402;2024-02-15T01:31:52;20.45;;;8.57;;
76320;SDS011;65132;52.088;5.402;2024-02-15T01:34:18;26.20;;;9.48;;
76320;SDS011;65132;52.088;5.402;2024-02-15T01:36:47;28.55;;;10.00;;
76320;SDS011;65132;52.088;5.402;2024-02-15T01:39:16;24.80;;;10.25;;
76320;SDS011;65132;52.088;5.402;2024-02-15T01:41:48;27.90;;;12.07;;
76320;SDS011;65132;52.088;5.402;2024-02-15T01:44:15;22.73;;;9.65;;
76320;SDS011;65132;52.088;5.402;2024-02-15T01:46:41;26.83;;;11.27;;
76320;SDS011;65132;52.088;5.402;2024-02-15T01:49:08;28.83;;;11.60;;
76320;SDS011;65132;52.088;5.402;2024-02-15T01:54:05;28.67;;;10.27;;
76320;SDS011;65132;52.088;5.402;2024-02-15T01:56:34;30.10;;;10.27;;
76320;SDS011;65132;52.088;5.402;2024-02-15T01:59:01;22.52;;;9.95;;
76320;SDS011;65132;52.088;5.402;2024-02-15T02:01:27;30.20;;;11.52;;
76320;SDS011;65132;52.088;5.402;2024-02-15T02:04:00;25.48;;;10.57;;
76320;SDS011;65132;52.088;5.402;2024-02-15T02:06:29;26.10;;;10.43;;
76320;SDS011;65132;52.088;5.402;2024-02-15T02:08:56;27.77;;;11.13;;
76320;SDS011;65132;52.088;5.402;2024-02-15T02:11:23;21.23;;;9.40;;
76320;SDS011;65132;52.088;5.402;2024-02-15T02:13:49;28.83;;;11.15;;
76320;SDS011;65132;52.088;5.402;2024-02-15T02:16:24;20.73;;;10.05;;
76320;SDS011;65132;52.088;5.402;2024-02-15T02:18:50;22.13;;;9.30;;
76320;SDS011;65132;52.088;5.402;2024-02-15T02:21:17;22.13;;;8.73;;
76320;SDS011;65132;52.088;5.402;2024-02-15T02:23:44;23.00;;;9.13;;
76320;SDS011;65132;52.088;5.402;2024-02-15T02:26:11;19.48;;;9.00;;
76320;SDS011;65132;52.088;5.402;2024-02-15T02:28:41;19.10;;;9.00;;
76320;SDS011;65132;52.088;5.402;2024-02-15T02:31:07;18.33;;;8.60;;
76320;SDS011;65132;52.088;5.402;2024-02-15T02:33:33;21.75;;;8.75;;
76320;SDS011;65132;52.088;5.402;2024-02-15T02:36:04;24.55;;;8.32;;
76320;SDS011;65132;52.088;5.402;2024-02-15T02:38:31;20.55;;;8.98;;
76320;SDS011;65132;52.088;5.402;2024-02-15T02:40:59;19.75;;;8.90;;
76320;SDS011;65132;52.088;5.402;2024-02-15T02:43:27;16.90;;;8.02;;
76320;SDS011;65132;52.088;5.402;2024-02-15T02:45:56;17.38;;;7.07;;
76320;SDS011;65132;52.088;5.402;2024-02-15T02:48:22;22.23;;;8.18;;
76320;SDS011;65132;52.088;5.402;2024-02-15T02:50:49;20.85;;;7.18;;
76320;SDS011;65132;52.088;5.402;2024-02-15T02:53:15;18.05;;;8.02;;
76320;SDS011;65132;52.088;5.402;2024-02-15T02:55:42;19.02;;;7.47;;
76320;SDS011;65132;52.088;5.402;2024-02-15T02:58:08;20.38;;;7.07;;
76320;SDS011;65132;52.088;5.402;2024-02-15T03:00:34;18.60;;;7.90;;
76320;SDS011;65132;52.088;5.402;2024-02-15T03:03:01;17.85;;;7.45;;
76320;SDS011;65132;52.088;5.402;2024-02-15T03:05:27;18.73;;;6.65;;
76320;SDS011;65132;52.088;5.402;2024-02-15T03:07:53;16.42;;;7.20;;
76320;SDS011;65132;52.088;5.402;2024-02-15T03:10:20;16.92;;;6.47;;
76320;SDS011;65132;52.088;5.402;2024-02-15T03:12:46;20.83;;;7.63;;
76320;SDS011;65132;52.088;5.402;2024-02-15T03:15:15;18.48;;;7.35;;
76320;SDS011;65132;52.088;5.402;2024-02-15T03:17:46;18.58;;;7.15;;
76320;SDS011;65132;52.088;5.402;2024-02-15T03:20:16;19.77;;;7.70;;
76320;SDS011;65132;52.088;5.402;2024-02-15T03:22:43;14.32;;;6.20;;
76320;SDS011;65132;52.088;5.402;2024-02-15T03:25:11;16.45;;;6.82;;
76320;SDS011;65132;52.088;5.402;2024-02-15T03:27:38;14.48;;;6.45;;
76320;SDS011;65132;52.088;5.402;2024-02-15T03:30:04;19.70;;;6.28;;
76320;SDS011;65132;52.088;5.402;2024-02-15T03:32:31;14.70;;;6.13;;
76320;SDS011;65132;52.088;5.402;2024-02-15T03:35:00;10.23;;;5.20;;
76320;SDS011;65132;52.088;5.402;2024-02-15T03:37:29;18.30;;;6.25;;
76320;SDS011;65132;52.088;5.402;2024-02-15T03:39:55;15.93;;;6.05;;
76320;SDS011;65132;52.088;5.402;2024-02-15T03:42:21;14.38;;;5.40;;
76320;SDS011;65132;52.088;5.402;2024-02-15T03:44:48;13.95;;;5.32;;
76320;SDS011;65132;52.088;5.402;2024-02-15T03:47:14;16.13;;;6.65;;
76320;SDS011;65132;52.088;5.402;2024-02-15T03:49:41;12.18;;;5.03;;
76320;SDS011;65132;52.088;5.402;2024-02-15T03:52:12;17.23;;;6.30;;
76320;SDS011;65132;52.088;5.402;2024-02-15T03:54:38;12.18;;;5.40;;
76320;SDS011;65132;52.088;5.402;2024-02-15T03:57:05;14.57;;;5.85;;
76320;SDS011;65132;52.088;5.402;2024-02-15T03:59:33;13.13;;;5.65;;
76320;SDS011;65132;52.088;5.402;2024-02-15T04:01:59;13.40;;;5.97;;
76320;SDS011;65132;52.088;5.402;2024-02-15T04:04:28;15.52;;;5.47;;
76320;SDS011;65132;52.088;5.402;2024-02-15T04:06:54;13.27;;;5.30;;
76320;SDS011;65132;52.088;5.402;2024-02-15T04:09:21;13.77;;;5.35;;
76320;SDS011;65132;52.088;5.402;2024-02-15T04:11:47;16.42;;;5.38;;
76320;SDS011;65132;52.088;5.402;2024-02-15T04:14:13;12.80;;;4.97;;
76320;SDS011;65132;52.088;5.402;2024-02-15T04:16:40;13.05;;;5.63;;
76320;SDS011;65132;52.088;5.402;2024-02-15T04:19:09;17.92;;;5.63;;
76320;SDS011;65132;52.088;5.402;2024-02-15T04:21:36;17.77;;;5.15;;
76320;SDS011;65132;52.088;5.402;2024-02-15T04:24:02;14.55;;;5.45;;
76320;SDS011;65132;52.088;5.402;2024-02-15T04:26:29;18.23;;;6.05;;
76320;SDS011;65132;52.088;5.402;2024-02-15T04:28:56;12.68;;;5.13;;
76320;SDS011;65132;52.088;5.402;2024-02-15T04:31:22;12.75;;;4.75;;
76320;SDS011;65132;52.088;5.402;2024-02-15T04:33:48;12.52;;;5.35;;
76320;SDS011;65132;52.088;5.402;2024-02-15T04:36:15;13.32;;;5.38;;
76320;SDS011;65132;52.088;5.402;2024-02-15T04:38:41;14.13;;;5.95;;
76320;SDS011;65132;52.088;5.402;2024-02-15T04:41:10;15.02;;;4.80;;
76320;SDS011;65132;52.088;5.402;2024-02-15T04:43:37;16.05;;;5.10;;
76320;SDS011;65132;52.088;5.402;2024-02-15T04:46:03;13.35;;;4.80;;
76320;SDS011;65132;52.088;5.402;2024-02-15T04:48:35;14.93;;;4.43;;
76320;SDS011;65132;52.088;5.402;2024-02-15T04:51:03;13.82;;;6.00;;
76320;SDS011;65132;52.088;5.402;2024-02-15T04:53:32;13.05;;;5.20;;
76320;SDS011;65132;52.088;5.402;2024-02-15T04:56:00;12.48;;;4.53;;
76320;SDS011;65132;52.088;5.402;2024-02-15T04:58:27;14.57;;;4.97;;
76320;SDS011;65132;52.088;5.402;2024-02-15T05:00:54;15.10;;;5.97;;
76320;SDS011;65132;52.088;5.402;2024-02-15T05:03:23;15.07;;;4.80;;
76320;SDS011;65132;52.088;5.402;2024-02-15T05:05:50;13.48;;;5.43;;
76320;SDS011;65132;52.088;5.402;2024-02-15T05:08:16;19.02;;;6.13;;
76320;SDS011;65132;52.088;5.402;2024-02-15T05:10:43;18.48;;;6.13;;
76320;SDS011;65132;52.088;5.402;2024-02-15T05:13:09;14.55;;;5.32;;
76320;SDS011;65132;52.088;5.402;2024-02-15T05:15:36;13.55;;;4.70;;
76320;SDS011;65132;52.088;5.402;2024-02-15T05:18:02;23.17;;;6.80;;
76320;SDS011;65132;52.088;5.402;2024-02-15T05:20:31;12.80;;;5.22;;
76320;SDS011;65132;52.088;5.402;2024-02-15T05:22:58;18.33;;;7.10;;
76320;SDS011;65132;52.088;5.402;2024-02-15T05:25:24;12.70;;;5.03;;
76320;SDS011;65132;52.088;5.402;2024-02-15T05:27:53;14.85;;;5.47;;
76320;SDS011;65132;52.088;5.402;2024-02-15T05:30:19;15.23;;;6.13;;
76320;SDS011;65132;52.088;5.402;2024-02-15T05:32:46;15.60;;;6.70;;
76320;SDS011;65132;52.088;5.402;2024-02-15T05:35:12;19.05;;;6.88;;
76320;SDS011;65132;52.088;5.402;2024-02-15T05:37:38;15.02;;;5.93;;
76320;SDS011;65132;52.088;5.402;2024-02-15T05:40:07;16.10;;;7.40;;
76320;SDS011;65132;52.088;5.402;2024-02-15T05:42:34;14.00;;;6.82;;
76320;SDS011;65132;52.088;5.402;2024-02-15T05:45:14;15.60;;;6.22;;
76320;SDS011;65132;52.088;5.402;2024-02-15T05:47:41;14.73;;;7.15;;
76320;SDS011;65132;52.088;5.402;2024-02-15T05:50:09;17.98;;;7.50;;
76320;SDS011;65132;52.088;5.402;2024-02-15T05:52:35;13.95;;;6.25;;
76320;SDS011;65132;52.088;5.402;2024-02-15T05:55:02;13.63;;;6.40;;
76320;SDS011;65132;52.088;5.402;2024-02-15T05:57:31;12.60;;;6.25;;
76320;SDS011;65132;52.088;5.402;2024-02-15T05:59:59;17.65;;;7.10;;
76320;SDS011;65132;52.088;5.402;2024-02-15T06:02:38;14.90;;;6.32;;
76320;SDS011;65132;52.088;5.402;2024-02-15T06:05:12;16.65;;;6.63;;
76320;SDS011;65132;52.088;5.402;2024-02-15T06:07:38;18.02;;;6.95;;
76320;SDS011;65132;52.088;5.402;2024-02-15T06:10:07;12.75;;;5.80;;
76320;SDS011;65132;52.088;5.402;2024-02-15T06:12:34;13.40;;;6.80;;
76320;SDS011;65132;52.088;5.402;2024-02-15T06:15:03;16.30;;;7.18;;
76320;SDS011;65132;52.088;5.402;2024-02-15T06:17:29;18.35;;;6.78;;
76320;SDS011;65132;52.088;5.402;2024-02-15T06:19:56;16.83;;;7.07;;
76320;SDS011;65132;52.088;5.402;2024-02-15T06:22:23;15.88;;;7.35;;
76320;SDS011;65132;52.088;5.402;2024-02-15T06:24:49;11.35;;;4.88;;
76320;SDS011;65132;52.088;5.402;2024-02-15T06:27:16;13.80;;;7.05;;
76320;SDS011;65132;52.088;5.402;2024-02-15T06:29:42;9.82;;;4.60;;
76320;SDS011;65132;52.088;5.402;2024-02-15T06:32:09;13.35;;;6.00;;
76320;SDS011;65132;52.088;5.402;2024-02-15T06:34:35;15.23;;;7.53;;
76320;SDS011;65132;52.088;5.402;2024-02-15T06:37:01;14.52;;;5.95;;
76320;SDS011;65132;52.088;5.402;2024-02-15T06:39:28;14.52;;;6.88;;
76320;SDS011;65132;52.088;5.402;2024-02-15T06:42:04;17.83;;;7.90;;
76320;SDS011;65132;52.088;5.402;2024-02-15T06:44:39;14.73;;;6.93;;
76320;SDS011;65132;52.088;5.402;2024-02-15T06:47:05;12.48;;;6.15;;
76320;SDS011;65132;52.088;5.402;2024-02-15T06:49:32;15.07;;;7.25;;
76320;SDS011;65132;52.088;5.402;2024-02-15T06:51:59;15.57;;;7.25;;
76320;SDS011;65132;52.088;5.402;2024-02-15T06:54:25;17.65;;;6.80;;
76320;SDS011;65132;52.088;5.402;2024-02-15T06:56:52;21.85;;;8.13;;
76320;SDS011;65132;52.088;5.402;2024-02-15T06:59:18;17.27;;;7.68;;
76320;SDS011;65132;52.088;5.402;2024-02-15T07:01:45;19.48;;;8.02;;
76320;SDS011;65132;52.088;5.402;2024-02-15T07:04:11;17.33;;;7.53;;
76320;SDS011;65132;52.088;5.402;2024-02-15T07:06:38;15.23;;;6.90;;
76320;SDS011;65132;52.088;5.402;2024-02-15T07:09:05;11.20;;;5.65;;
76320;SDS011;65132;52.088;5.402;2024-02-15T07:11:35;16.35;;;7.22;;
76320;SDS011;65132;52.088;5.402;2024-02-15T07:14:01;10.48;;;5.43;;
76320;SDS011;65132;52.088;5.402;2024-02-15T07:16:29;15.52;;;6.70;;
76320;SDS011;65132;52.088;5.402;2024-02-15T07:18:55;15.00;;;7.13;;
76320;SDS011;65132;52.088;5.402;2024-02-15T07:21:22;15.40;;;7.80;;
76320;SDS011;65132;52.088;5.402;2024-02-15T07:23:48;17.90;;;7.15;;
76320;SDS011;65132;52.088;5.402;2024-02-15T07:26:15;12.27;;;6.47;;
76320;SDS011;65132;52.088;5.402;2024-02-15T07:28:42;16.02;;;6.53;;
76320;SDS011;65132;52.088;5.402;2024-02-15T07:31:08;14.45;;;6.50;;
76320;SDS011;65132;52.088;5.402;2024-02-15T07:33:35;11.90;;;6.07;;
76320;SDS011;65132;52.088;5.402;2024-02-15T07:36:02;11.80;;;6.80;;
76320;SDS011;65132;52.088;5.402;2024-02-15T07:38:28;11.93;;;5.80;;
76320;SDS011;65132;52.088;5.402;2024-02-15T07:40:56;12.55;;;6.07;;
76320;SDS011;65132;52.088;5.402;2024-02-15T07:43:22;11.15;;;5.30;;
76320;SDS011;65132;52.088;5.402;2024-02-15T07:45:48;10.02;;;5.55;;
76320;SDS011;65132;52.088;5.402;2024-02-15T07:48:15;11.52;;;5.20;;
76320;SDS011;65132;52.088;5.402;2024-02-15T07:50:42;9.65;;;5.22;;
76320;SDS011;65132;52.088;5.402;2024-02-15T07:53:08;10.43;;;5.38;;
76320;SDS011;65132;52.088;5.402;2024-02-15T07:55:35;8.93;;;4.63;;
76320;SDS011;65132;52.088;5.402;2024-02-15T07:58:01;8.02;;;4.18;;
76320;SDS011;65132;52.088;5.402;2024-02-15T08:00:28;10.20;;;4.68;;
76320;SDS011;65132;52.088;5.402;2024-02-15T08:02:54;8.93;;;4.45;;
76320;SDS011;65132;52.088;5.402;2024-02-15T08:05:20;8.13;;;3.97;;
76320;SDS011;65132;52.088;5.402;2024-02-15T08:07:48;9.98;;;4.28;;
76320;SDS011;65132;52.088;5.402;2024-02-15T08:10:16;7.43;;;4.22;;
76320;SDS011;65132;52.088;5.402;2024-02-15T08:12:45;6.63;;;3.72;;
76320;SDS011;65132;52.088;5.402;2024-02-15T08:15:12;11.52;;;4.10;;
76320;SDS011;65132;52.088;5.402;2024-02-15T08:17:39;9.95;;;4.43;;
76320;SDS011;65132;52.088;5.402;2024-02-15T08:20:15;10.27;;;4.80;;
76320;SDS011;65132;52.088;5.402;2024-02-15T08:22:41;10.82;;;5.13;;
76320;SDS011;65132;52.088;5.402;2024-02-15T08:25:09;9.60;;;4.32;;
76320;SDS011;65132;52.088;5.402;2024-02-15T08:27:46;8.52;;;4.57;;
76320;SDS011;65132;52.088;5.402;2024-02-15T08:30:13;8.02;;;3.67;;
76320;SDS011;65132;52.088;5.402;2024-02-15T08:32:40;7.00;;;3.80;;
76320;SDS011;65132;52.088;5.402;2024-02-15T08:35:07;8.20;;;4.18;;
76320;SDS011;65132;52.088;5.402;2024-02-15T08:37:37;7.95;;;3.90;;
76320;SDS011;65132;52.088;5.402;2024-02-15T08:40:07;6.50;;;3.15;;
76320;SDS011;65132;52.088;5.402;2024-02-15T08:42:33;6.82;;;2.63;;
76320;SDS011;65132;52.088;5.402;2024-02-15T08:45:00;5.85;;;2.90;;
76320;SDS011;65132;52.088;5.402;2024-02-15T08:47:26;5.38;;;2.78;;
76320;SDS011;65132;52.088;5.402;2024-02-15T08:49:52;5.60;;;2.50;;
76320;SDS011;65132;52.088;5.402;2024-02-15T08:52:19;5.55;;;2.47;;
76320;SDS011;65132;52.088;5.402;2024-02-15T08:54:47;7.00;;;2.60;;
76320;SDS011;65132;52.088;5.402;2024-02-15T08:57:13;4.80;;;1.90;;
76320;SDS011;65132;52.088;5.402;2024-02-15T08:59:39;6.63;;;2.78;;
76320;SDS011;65132;52.088;5.402;2024-02-15T09:02:06;3.80;;;1.95;;
76320;SDS011;65132;52.088;5.402;2024-02-15T09:04:32;5.28;;;2.35;;
76320;SDS011;65132;52.088;5.402;2024-02-15T09:06:59;6.45;;;2.30;;
76320;SDS011;65132;52.088;5.402;2024-02-15T09:09:26;6.82;;;1.77;;
76320;SDS011;65132;52.088;5.402;2024-02-15T09:11:52;4.45;;;2.05;;
76320;SDS011;65132;52.088;5.402;2024-02-15T09:14:18;5.32;;;2.22;;
76320;SDS011;65132;52.088;5.402;2024-02-15T09:16:45;5.20;;;2.53;;
76320;SDS011;65132;52.088;5.402;2024-02-15T09:19:11;3.50;;;1.70;;
76320;SDS011;65132;52.088;5.402;2024-02-15T09:21:38;3.75;;;1.35;;
76320;SDS011;65132;52.088;5.402;2024-02-15T09:24:04;4.07;;;1.40;;
76320;SDS011;65132;52.088;5.402;2024-02-15T09:26:33;6.50;;;2.58;;
76320;SDS011;65132;52.088;5.402;2024-02-15T09:28:59;4.30;;;2.00;;
76320;SDS011;65132;52.088;5.402;2024-02-15T09:31:26;8.40;;;2.90;;
76320;SDS011;65132;52.088;5.402;2024-02-15T09:33:52;6.13;;;2.15;;
76320;SDS011;65132;52.088;5.402;2024-02-15T09:36:19;8.10;;;2.88;;
76320;SDS011;65132;52.088;5.402;2024-02-15T09:38:45;8.60;;;3.03;;
76320;SDS011;65132;52.088;5.402;2024-02-15T09:41:11;4.60;;;2.58;;
76320;SDS011;65132;52.088;5.402;2024-02-15T09:43:38;8.77;;;3.90;;
76320;SDS011;65132;52.088;5.402;2024-02-15T09:46:04;5.10;;;2.17;;
76320;SDS011;65132;52.088;5.402;2024-02-15T09:48:30;6.88;;;2.30;;
76320;SDS011;65132;52.088;5.402;2024-02-15T09:51:01;8.98;;;2.85;;
76320;SDS011;65132;52.088;5.402;2024-02-15T09:53:27;6.95;;;2.72;;
76320;SDS011;65132;52.088;5.402;2024-02-15T09:55:54;7.57;;;3.13;;
76320;SDS011;65132;52.088;5.402;2024-02-15T09:58:23;7.25;;;2.55;;
76320;SDS011;65132;52.088;5.402;2024-02-15T10:00:50;6.57;;;2.58;;
76320;SDS011;65132;52.088;5.402;2024-02-15T10:03:19;8.48;;;3.00;;
76320;SDS011;65132;52.088;5.402;2024-02-15T10:05:47;8.55;;;3.30;;
76320;SDS011;65132;52.088;5.402;2024-02-15T10:08:14;5.00;;;2.05;;
76320;SDS011;65132;52.088;5.402;2024-02-15T10:10:43;6.00;;;2.53;;
76320;SDS011;65132;52.088;5.402;2024-02-15T10:13:12;6.90;;;2.20;;
76320;SDS011;65132;52.088;5.402;2024-02-15T10:15:39;6.78;;;2.25;;
76320;SDS011;65132;52.088;5.402;2024-02-15T10:18:08;5.63;;;2.45;;
76320;SDS011;65132;52.088;5.402;2024-02-15T10:20:36;9.38;;;3.08;;
76320;SDS011;65132;52.088;5.402;2024-02-15T10:25:33;6.38;;;3.05;;
76320;SDS011;65132;52.088;5.402;2024-02-15T10:28:03;7.10;;;2.58;;
76320;SDS011;65132;52.088;5.402;2024-02-15T10:30:29;6.68;;;2.33;;
76320;SDS011;65132;52.088;5.402;2024-02-15T10:32:56;7.93;;;2.47;;
76320;SDS011;65132;52.088;5.402;2024-02-15T10:35:23;5.68;;;2.40;;
76320;SDS011;65132;52.088;5.402;2024-02-15T10:37:50;5.55;;;2.30;;
76320;SDS011;65132;52.088;5.402;2024-02-15T10:40:18;8.75;;;2.90;;
76320;SDS011;65132;52.088;5.402;2024-02-15T10:42:47;7.03;;;2.58;;
76320;SDS011;65132;52.088;5.402;2024-02-15T10:45:17;10.02;;;2.88;;
76320;SDS011;65132;52.088;5.402;2024-02-15T10:47:46;5.18;;;2.50;;
76320;SDS011;65132;52.088;5.402;2024-02-15T10:50:13;5.88;;;2.72;;
76320;SDS011;65132;52.088;5.402;2024-02-15T10:53:01;8.25;;;3.17;;
76320;SDS011;65132;52.088;5.402;2024-02-15T10:55:37;9.10;;;2.95;;
76320;SDS011;65132;52.088;5.402;2024-02-15T10:58:05;6.88;;;3.08;;
76320;SDS011;65132;52.088;5.402;2024-02-15T11:00:33;6.05;;;2.17;;
76320;SDS011;65132;52.088;5.402;2024-02-15T11:03:01;9.80;;;2.85;;
76320;SDS011;65132;52.088;5.402;2024-02-15T11:05:29;7.93;;;2.88;;
76320;SDS011;65132;52.088;5.402;2024-02-15T11:07:58;5.75;;;2.33;;
76320;SDS011;65132;52.088;5.402;2024-02-15T11:10:25;8.00;;;3.60;;
76320;SDS011;65132;52.088;5.402;2024-02-15T11:12:52;9.70;;;3.22;;
76320;SDS011;65132;52.088;5.402;2024-02-15T11:21:00;13.82;;;3.85;;
76320;SDS011;65132;52.088;5.402;2024-02-15T11:23:27;7.55;;;3.50;;
76320;SDS011;65132;52.088;5.402;2024-02-15T11:26:02;7.85;;;3.42;;
76320;SDS011;65132;52.088;5.402;2024-02-15T11:30:55;9.57;;;2.95;;
76320;SDS011;65132;52.088;5.402;2024-02-15T11:33:28;8.80;;;4.28;;
76320;SDS011;65132;52.088;5.402;2024-02-15T11:36:04;8.27;;;3.50;;
76320;SDS011;65132;52.088;5.402;2024-02-15T11:38:31;11.52;;;4.50;;
76320;SDS011;65132;52.088;5.402;2024-02-15T11:41:01;9.85;;;4.55;;
76320;SDS011;65132;52.088;5.402;2024-02-15T11:46:00;11.02;;;4.22;;
76320;SDS011;65132;52.088;5.402;2024-02-15T11:48:26;8.95;;;4.90;;
76320;SDS011;65132;52.088;5.402;2024-02-15T11:50:53;8.75;;;4.10;;
76320;SDS011;65132;52.088;5.402;2024-02-15T11:53:19;9.65;;;3.95;;
76320;SDS011;65132;52.088;5.402;2024-02-15T11:55:46;7.75;;;4.10;;
76320;SDS011;65132;52.088;5.402;2024-02-15T11:58:12;6.10;;;3.08;;
76320;SDS011;65132;52.088;5.402;2024-02-15T12:00:39;11.18;;;4.47;;
76320;SDS011;65132;52.088;5.402;2024-02-15T12:03:05;7.25;;;4.18;;
76320;SDS011;65132;52.088;5.402;2024-02-15T12:05:31;10.00;;;4.18;;
76320;SDS011;65132;52.088;5.402;2024-02-15T12:07:58;7.68;;;4.32;;
76320;SDS011;65132;52.088;5.402;2024-02-15T12:10:24;9.98;;;5.22;;
76320;SDS011;65132;52.088;5.402;2024-02-15T12:12:53;7.32;;;4.00;;
76320;SDS011;65132;52.088;5.402;2024-02-15T12:15:19;9.85;;;5.15;;
76320;SDS011;65132;52.088;5.402;2024-02-15T12:17:48;9.55;;;4.53;;
76320;SDS011;65132;52.088;5.402;2024-02-15T12:20:14;10.02;;;4.95;;
76320;SDS011;65132;52.088;5.402;2024-02-15T12:22:44;10.75;;;4.53;;
76320;SDS011;65132;52.088;5.402;2024-02-15T12:25:15;8.32;;;4.07;;
76320;SDS011;65132;52.088;5.402;2024-02-15T12:30:15;11.48;;;5.10;;
76320;SDS011;65132;52.088;5.402;2024-02-15T12:32:42;9.98;;;4.65;;
76320;SDS011;65132;52.088;5.402;2024-02-15T12:35:14;9.50;;;5.00;;
76320;SDS011;65132;52.088;5.402;2024-02-15T12:37:41;10.20;;;5.15;;
76320;SDS011;65132;52.088;5.402;2024-02-15T12:40:15;11.77;;;4.45;;
76320;SDS011;65132;52.088;5.402;2024-02-15T12:42:43;9.23;;;4.93;;
76320;SDS011;65132;52.088;5.402;2024-02-15T12:45:19;9.15;;;3.95;;
76320;SDS011;65132;52.088;5.402;2024-02-15T12:47:49;7.40;;;3.70;;
76320;SDS011;65132;52.088;5.402;2024-02-15T12:50:16;7.57;;;3.72;;
76320;SDS011;65132;52.088;5.402;2024-02-15T12:52:44;10.65;;;3.83;;
76320;SDS011;65132;52.088;5.402;2024-02-15T12:55:16;8.57;;;4.07;;
76320;SDS011;65132;52.088;5.402;2024-02-15T13:00:12;5.57;;;2.30;;
76320;SDS011;65132;52.088;5.402;2024-02-15T13:02:39;6.90;;;2.67;;
76320;SDS011;65132;52.088;5.402;2024-02-15T13:05:06;6.00;;;2.20;;
76320;SDS011;65132;52.088;5.402;2024-02-15T13:07:38;5.40;;;1.88;;
76320;SDS011;65132;52.088;5.402;2024-02-15T13:10:04;4.40;;;2.00;;
76320;SDS011;65132;52.088;5.402;2024-02-15T13:12:30;9.02;;;1.80;;
76320;SDS011;65132;52.088;5.402;2024-02-15T13:14:57;5.68;;;1.52;;
76320;SDS011;65132;52.088;5.402;2024-02-15T13:17:26;5.85;;;1.80;;
76320;SDS011;65132;52.088;5.402;2024-02-15T13:19:52;4.85;;;1.85;;
76320;SDS011;65132;52.088;5.402;2024-02-15T13:22:19;4.95;;;1.63;;
76320;SDS011;65132;52.088;5.402;2024-02-15T13:24:45;3.47;;;1.52;;
76320;SDS011;65132;52.088;5.402;2024-02-15T13:27:11;5.78;;;1.73;;
76320;SDS011;65132;52.088;5.402;2024-02-15T13:29:38;5.38;;;1.67;;
76320;SDS011;65132;52.088;5.402;2024-02-15T13:32:04;4.55;;;1.52;;
76320;SDS011;65132;52.088;5.402;2024-02-15T13:34:31;3.67;;;1.10;;
76320;SDS011;65132;52.088;5.402;2024-02-15T13:36:57;4.63;;;1.50;;
76320;SDS011;65132;52.088;5.402;2024-02-15T13:39:27;6.22;;;2.47;;
76320;SDS011;65132;52.088;5.402;2024-02-15T13:41:53;4.30;;;1.80;;
76320;SDS011;65132;52.088;5.402;2024-02-15T13:44:21;4.82;;;1.70;;
76320;SDS011;65132;52.088;5.402;2024-02-15T13:46:47;4.95;;;1.65;;
76320;SDS011;65132;52.088;5.402;2024-02-15T13:49:13;5.35;;;1.75;;
76320;SDS011;65132;52.088;5.402;2024-02-15T13:51:54;5.35;;;1.55;;
76320;SDS011;65132;52.088;5.402;2024-02-15T13:54:20;5.30;;;1.70;;
76320;SDS011;65132;52.088;5.402;2024-02-15T13:56:47;4.40;;;1.33;;
76320;SDS011;65132;52.088;5.402;2024-02-15T13:59:13;5.90;;;1.63;;
76320;SDS011;65132;52.088;5.402;2024-02-15T14:01:40;7.78;;;1.80;;
76320;SDS011;65132;52.088;5.402;2024-02-15T14:04:07;3.28;;;1.60;;
76320;SDS011;65132;52.088;5.402;2024-02-15T14:06:34;4.45;;;1.80;;
76320;SDS011;65132;52.088;5.402;2024-02-15T14:09:00;6.00;;;1.60;;
76320;SDS011;65132;52.088;5.402;2024-02-15T14:11:26;7.22;;;1.63;;
76320;SDS011;65132;52.088;5.402;2024-02-15T14:13:53;4.35;;;1.80;;
76320;SDS011;65132;52.088;5.402;2024-02-15T14:16:19;4.45;;;2.03;;
76320;SDS011;65132;52.088;5.402;2024-02-15T14:18:46;5.72;;;1.95;;
76320;SDS011;65132;52.088;5.402;2024-02-15T14:21:12;4.60;;;1.65;;
76320;SDS011;65132;52.088;5.402;2024-02-15T14:23:39;4.95;;;1.90;;
76320;SDS011;65132;52.088;5.402;2024-02-15T14:26:08;4.57;;;1.98;;
76320;SDS011;65132;52.088;5.402;2024-02-15T14:28:34;5.50;;;2.08;;
76320;SDS011;65132;52.088;5.402;2024-02-15T14:31:02;6.80;;;2.20;;
76320;SDS011;65132;52.088;5.402;2024-02-15T14:33:29;4.30;;;2.00;;
76320;SDS011;65132;52.088;5.402;2024-02-15T14:36:00;6.15;;;2.25;;
76320;SDS011;65132;52.088;5.402;2024-02-15T14:38:28;5.88;;;2.10;;
76320;SDS011;65132;52.088;5.402;2024-02-15T14:40:54;5.13;;;2.10;;
76320;SDS011;65132;52.088;5.402;2024-02-15T14:43:21;6.90;;;2.00;;
76320;SDS011;65132;52.088;5.402;2024-02-15T14:45:49;4.72;;;1.95;;
76320;SDS011;65132;52.088;5.402;2024-02-15T14:48:16;4.68;;;1.80;;
76320;SDS011;65132;52.088;5.402;2024-02-15T14:50:48;6.72;;;1.88;;
76320;SDS011;65132;52.088;5.402;2024-02-15T14:53:14;7.82;;;2.30;;
76320;SDS011;65132;52.088;5.402;2024-02-15T14:55:43;6.68;;;1.98;;
76320;SDS011;65132;52.088;5.402;2024-02-15T14:58:12;4.40;;;1.67;;
76320;SDS011;65132;52.088;5.402;2024-02-15T15:00:40;4.53;;;2.05;;
76320;SDS011;65132;52.088;5.402;2024-02-15T15:03:06;4.32;;;1.90;;